Time,TemperatureF,DewpointF,PressureIn,WindDirection,WindDirectionDegrees,WindSpeedMPH,WindSpeedGustMPH,Humidity,HourlyPrecipIn,Conditions,Clouds,dailyrainin,SoftwareType,DateUTC
2013-03-10 00:29:00,39.1,15.6,29.83,SW,229,6.0,17.0,38,0.00,CLR,,0.00,WeatherDisplay:10.37,2013-03-10 06:29:00,
2013-03-10 00:59:00,38.3,15.5,29.84,WNW,284,2.0,13.0,39,0.00,CLR,,0.00,WeatherDisplay:10.37,2013-03-10 06:59:00,
2013-03-10 01:29:00,37.8,16.2,29.83,SSW,209,8.0,18.0,41,0.00,CLR,,0.00,WeatherDisplay:10.37,2013-03-10 07:29:00,
2013-03-10 01:59:00,37.8,16.2,29.83,SW,217,8.0,18.0,41,0.00,CLR,,0.00,WeatherDisplay:10.37,2013-03-10 07:59:00,
2013-03-10 03:29:00,37.0,16.5,29.84,South,186,1.0,14.0,43,0.00,CLR,,0.00,WeatherDisplay:10.37,2013-03-10 08:29:00,
2013-03-10 03:59:00,36.2,16.4,29.85,NNW,343,1.0,12.0,44,0.00,CLR,,0.00,WeatherDisplay:10.37,2013-03-10 08:59:00,
2013-03-10 04:29:00,35.2,17.0,29.85,WNW,286,2.0,14.0,47,0.00,CLR,,0.00,WeatherDisplay:10.37,2013-03-10 09:29:00,
2013-03-10 04:59:00,33.1,17.4,29.87,SSE,161,1.0,8.0,52,0.00,CLR,,0.00,WeatherDisplay:10.37,2013-03-10 09:59:00,
2013-03-10 05:29:00,27.8,15.7,29.91,SSE,165,1.0,3.0,60,0.00,CLR,,0.00,WeatherDisplay:10.37,2013-03-10 10:29:00,
2013-03-10 05:59:00,26.6,15.3,29.93,SSE,165,2.0,3.0,62,0.00,CLR,,0.00,WeatherDisplay:10.37,2013-03-10 10:59:00,
2013-03-10 06:29:00,26.0,15.5,29.97,SSE,165,1.0,4.0,64,0.00,CLR,,0.00,WeatherDisplay:10.37,2013-03-10 11:29:00,
2013-03-10 06:59:00,30.0,20.3,29.96,East,97,5.0,7.0,67,0.00,CLR,,0.00,WeatherDisplay:10.37,2013-03-10 11:59:00,
2013-03-10 07:29:00,31.8,17.5,29.98,ENE,75,6.0,14.0,55,0.00,CLR,,0.00,WeatherDisplay:10.37,2013-03-10 12:29:00,
2013-03-10 07:59:00,30.3,16.9,30.01,NE,38,1.0,12.0,57,0.00,CLR,,0.00,WeatherDisplay:10.37,2013-03-10 12:59:00,
2013-03-10 08:29:00,29.7,17.1,30.05,ENE,75,3.0,12.0,59,0.00,CLR,,0.00,WeatherDisplay:10.37,2013-03-10 13:29:00,
2013-03-10 08:59:00,30.6,18.0,30.05,ENE,60,2.0,12.0,59,0.00,CLR,,0.00,WeatherDisplay:10.37,2013-03-10 13:59:00,
2013-03-10 09:30:00,32.3,18.4,30.07,ENE,77,2.0,12.0,56,0.00,CLR,,0.00,WeatherDisplay:10.37,2013-03-10 14:30:00,
2013-03-10 09:59:00,34.0,18.7,30.08,NE,52,5.0,18.0,53,0.00,CLR,,0.00,WeatherDisplay:10.37,2013-03-10 14:59:00,
2013-03-10 10:29:00,35.2,17.9,30.09,NNE,23,5.0,12.0,49,0.00,CLR,,0.00,WeatherDisplay:10.37,2013-03-10 15:29:00,
2013-03-10 11:00:00,36.3,17.4,30.09,NNE,16,3.0,12.0,46,0.00,CLR,,0.00,WeatherDisplay:10.37,2013-03-10 16:00:00,
2013-03-10 11:30:00,36.3,16.4,30.09,NNE,27,5.0,13.0,44,0.00,CLR,,0.00,WeatherDisplay:10.37,2013-03-10 16:30:00,
2013-03-10 12:00:00,38.5,16.8,30.07,NE,34,7.0,12.0,41,0.00,CLR,,0.00,WeatherDisplay:10.37,2013-03-10 17:00:00,
2013-03-10 12:30:00,38.3,16.6,30.09,ENE,68,8.0,17.0,41,0.00,CLR,,0.00,WeatherDisplay:10.37,2013-03-10 17:30:00,
2013-03-10 13:00:00,39.5,16.0,30.08,East,94,8.0,13.0,38,0.00,CLR,,0.00,WeatherDisplay:10.37,2013-03-10 18:00:00,
2013-03-10 13:30:00,39.9,14.4,30.07,East,93,7.0,13.0,35,0.00,CLR,,0.00,WeatherDisplay:10.37,2013-03-10 18:30:00,
2013-03-10 14:00:00,40.8,15.9,30.05,ENE,74,6.0,17.0,36,0.00,CLR,,0.00,WeatherDisplay:10.37,2013-03-10 19:00:00,
2013-03-10 14:30:00,42.1,14.3,30.04,ESE,109,3.0,12.0,32,0.00,CLR,,0.00,WeatherDisplay:10.37,2013-03-10 19:30:00,
2013-03-10 15:00:00,42.6,14.0,30.01,NE,55,6.0,12.0,31,0.00,CLR,,0.00,WeatherDisplay:10.37,2013-03-10 20:00:00,
2013-03-10 15:30:00,42.6,11.7,30.01,East,81,8.0,14.0,28,0.00,CLR,,0.00,WeatherDisplay:10.37,2013-03-10 20:30:00,
2013-03-10 16:00:00,43.1,10.5,30.01,ENE,76,7.0,15.0,26,0.00,CLR,,0.00,WeatherDisplay:10.37,2013-03-10 21:00:00,
2013-03-10 16:30:00,43.9,9.4,30.04,East,87,3.0,14.0,24,0.00,CLR,,0.00,WeatherDisplay:10.37,2013-03-10 21:30:00,
2013-03-10 17:00:00,43.5,9.1,30.05,East,87,6.0,14.0,24,0.00,CLR,,0.00,WeatherDisplay:10.37,2013-03-10 22:00:00,
2013-03-10 17:30:00,41.9,9.5,30.09,East,81,3.0,13.0,26,0.00,CLR,,0.00,WeatherDisplay:10.37,2013-03-10 22:30:00,
2013-03-10 18:00:00,41.3,10.6,30.11,ENE,73,6.0,14.0,28,0.00,CLR,,0.00,WeatherDisplay:10.37,2013-03-10 23:00:00,
2013-03-10 18:30:00,41.5,10.8,30.07,ENE,64,7.0,14.0,28,0.00,CLR,,0.00,WeatherDisplay:10.37,2013-03-10 23:30:00,
2013-03-10 18:59:00,40.4,9.8,30.10,ENE,65,5.0,12.0,28,0.00,CLR,,0.00,WeatherDisplay:10.37,2013-03-10 23:59:00,
2013-03-10 19:29:00,38.9,10.8,30.14,East,80,1.0,10.0,31,0.00,CLR,,0.00,WeatherDisplay:10.37,2013-03-11 00:29:00,
2013-03-10 19:59:00,37.6,10.3,30.16,East,82,0.0,7.0,32,0.00,CLR,,0.00,WeatherDisplay:10.37,2013-03-11 00:59:00,
2013-03-10 20:29:00,31.9,10.8,30.20,East,82,1.0,3.0,41,0.00,CLR,,0.00,WeatherDisplay:10.37,2013-03-11 01:29:00,
2013-03-10 20:59:00,29.8,10.0,30.23,East,83,0.0,5.0,43,0.00,CLR,,0.00,WeatherDisplay:10.37,2013-03-11 01:59:00,
2013-03-10 21:29:00,27.5,9.9,30.24,East,83,1.0,3.0,47,0.00,CLR,,0.00,WeatherDisplay:10.37,2013-03-11 02:29:00,
2013-03-10 21:59:00,25.4,8.4,30.27,East,83,0.0,2.0,48,0.00,CLR,,0.00,WeatherDisplay:10.37,2013-03-11 02:59:00,
2013-03-10 22:29:00,24.2,8.7,30.27,East,83,1.0,2.0,51,0.00,CLR,,0.00,WeatherDisplay:10.37,2013-03-11 03:29:00,
2013-03-10 22:59:00,23.6,9.4,30.28,East,83,0.0,2.0,54,0.00,CLR,,0.00,WeatherDisplay:10.37,2013-03-11 03:59:00,
2013-03-10 23:29:00,23.0,8.8,30.28,East,83,0.0,2.0,54,0.00,CLR,,0.00,WeatherDisplay:10.37,2013-03-11 04:29:00,
2013-03-10 23:59:00,22.0,8.7,30.28,East,83,0.0,2.0,56,0.00,CLR,,0.00,WeatherDisplay:10.37,2013-03-11 04:59:00,